createdAt,value
2024-05-09T00:02:59.956Z,74.89
2024-05-09T00:06:07.542Z,74.85
2024-05-09T00:09:12.206Z,74.76
2024-05-09T00:12:16.655Z,75.06
2024-05-09T00:15:21.080Z,74.82
2024-05-09T00:18:25.530Z,75.03
2024-05-09T00:21:32.618Z,74.92
2024-05-09T00:24:36.969Z,74.85
2024-05-09T00:27:41.577Z,75.09
2024-05-09T00:30:46.131Z,74.78
2024-05-09T00:33:50.694Z,74.86
2024-05-09T00:36:57.793Z,74.71
2024-05-09T00:40:02.193Z,74.88
2024-05-09T00:43:06.958Z,74.94
2024-05-09T00:46:11.648Z,75.03
2024-05-09T00:49:16.088Z,75.08
2024-05-09T00:52:23.618Z,75.09
2024-05-09T00:55:27.796Z,75.00
2024-05-09T00:58:32.332Z,75.27
2024-05-09T01:01:36.829Z,75.15
2024-05-09T01:04:41.361Z,75.15
2024-05-09T01:07:48.377Z,75.09
2024-05-09T01:10:52.847Z,74.83
2024-05-09T01:13:57.318Z,74.76
2024-05-09T01:17:01.798Z,74.61
2024-05-09T01:20:10.632Z,74.84
2024-05-09T01:23:20.003Z,75.07
2024-05-09T01:26:24.411Z,75.19
2024-05-09T01:29:28.967Z,75.35
2024-05-09T01:32:33.488Z,75.23
2024-05-09T01:35:38.783Z,75.32
2024-05-09T01:38:46.097Z,75.32
2024-05-09T01:41:50.460Z,75.19
2024-05-09T01:44:54.807Z,75.14
2024-05-09T01:47:59.521Z,75.14
2024-05-09T01:51:04.270Z,75.15
2024-05-09T01:54:11.284Z,75.19
2024-05-09T01:57:15.662Z,75.25
2024-05-09T02:00:30.220Z,75.06
2024-05-09T02:03:41.934Z,74.95
2024-05-09T02:06:46.393Z,74.89
2024-05-09T02:09:54.027Z,74.95
2024-05-09T02:12:58.374Z,74.91
2024-05-09T02:16:02.732Z,74.90
2024-05-09T02:19:07.197Z,74.91
2024-05-09T02:22:11.617Z,75.04
2024-05-09T02:25:18.640Z,75.05
2024-05-09T02:28:23.250Z,75.15
2024-05-09T02:31:27.616Z,75.05
2024-05-09T02:34:32.200Z,74.94
2024-05-09T02:37:36.551Z,74.78
2024-05-09T02:40:41.195Z,74.77
2024-05-09T02:43:45.697Z,74.75
2024-05-09T02:46:50.132Z,74.82
2024-05-09T02:49:52.023Z,74.61
2024-05-09T02:52:56.477Z,74.61
2024-05-09T02:56:00.958Z,74.70
2024-05-09T02:59:05.414Z,74.83
2024-05-09T03:02:07.299Z,74.69
2024-05-09T03:05:11.876Z,74.84
2024-05-09T03:08:16.428Z,74.99
2024-05-09T03:11:24.311Z,75.14
2024-05-09T03:14:28.817Z,74.97
2024-05-09T03:17:33.564Z,75.01
2024-05-09T03:20:36.610Z,75.05
2024-05-09T03:23:43.316Z,74.99
2024-05-09T03:26:50.572Z,75.12
2024-05-09T03:29:52.336Z,75.06
2024-05-09T03:32:56.824Z,75.12
2024-05-09T03:35:58.626Z,75.25
2024-05-09T03:39:06.144Z,75.22
2024-05-09T03:42:13.103Z,75.15
2024-05-09T03:45:17.836Z,75.16
2024-05-09T03:48:22.332Z,75.23
2024-05-09T03:51:26.810Z,75.22
2024-05-09T03:54:28.566Z,75.40
2024-05-09T03:57:35.550Z,75.14
2024-05-09T04:00:39.507Z,75.19
2024-05-09T04:03:44.984Z,75.13
2024-05-09T04:06:46.892Z,75.20
2024-05-09T04:09:51.250Z,75.44
2024-05-09T04:12:55.949Z,75.35
2024-05-09T04:16:00.315Z,75.44
2024-05-09T04:19:02.177Z,75.82
2024-05-09T04:22:06.977Z,75.94
2024-05-09T04:25:08.763Z,75.86
2024-05-09T04:28:16.457Z,76.10
2024-05-09T04:31:18.210Z,76.42
2024-05-09T04:34:22.764Z,76.38
2024-05-09T04:37:25.463Z,76.47
2024-05-09T04:40:34.178Z,76.81
2024-05-09T04:43:40.954Z,77.02
2024-05-09T04:46:45.581Z,77.32
2024-05-09T04:49:47.420Z,77.71
2024-05-09T04:52:51.857Z,77.68
2024-05-09T04:55:53.676Z,77.90
2024-05-09T04:59:00.721Z,77.86
2024-05-09T05:02:02.860Z,77.79
2024-05-09T05:05:08.040Z,77.79
2024-05-09T05:08:11.177Z,77.95
2024-05-09T05:11:15.564Z,77.98
2024-05-09T05:14:20.046Z,77.86
2024-05-09T05:17:24.602Z,77.72
2024-05-09T05:20:32.878Z,77.70
2024-05-09T05:23:38.498Z,77.93
2024-05-09T05:26:40.440Z,78.10
2024-05-09T05:29:47.535Z,78.39
2024-05-09T05:32:49.507Z,78.81
2024-05-09T05:35:54.003Z,78.99
2024-05-09T05:38:58.374Z,79.08
2024-05-09T05:42:00.158Z,79.50
2024-05-09T05:45:09.741Z,79.83
2024-05-09T05:48:16.203Z,79.95
2024-05-09T05:51:18.441Z,80.08
2024-05-09T05:54:22.937Z,80.73
2024-05-09T05:57:24.694Z,80.51
2024-05-09T06:00:38.329Z,80.73
2024-05-09T06:03:44.682Z,80.68
2024-05-09T06:06:49.194Z,80.85
2024-05-09T06:09:51.018Z,81.02
2024-05-09T06:12:55.374Z,80.98
2024-05-09T06:16:04.845Z,81.21
2024-05-09T06:19:09.259Z,81.39
2024-05-09T06:22:13.665Z,81.67
2024-05-09T06:25:15.584Z,81.24
2024-05-09T06:28:19.949Z,81.24
2024-05-09T06:31:24.323Z,81.12
2024-05-09T06:34:28.802Z,81.29
2024-05-09T06:37:33.190Z,81.38
2024-05-09T06:40:38.439Z,81.83
2024-05-09T06:43:44.818Z,81.48
2024-05-09T06:46:49.454Z,81.71
2024-05-09T06:49:54.032Z,81.74
2024-05-09T06:52:55.857Z,81.41
2024-05-09T06:56:00.233Z,81.05
2024-05-09T06:59:02.163Z,80.80
2024-05-09T07:02:09.357Z,80.55
2024-05-09T07:05:13.715Z,80.32
2024-05-09T07:08:15.768Z,80.49
2024-05-09T07:11:20.426Z,80.27
2024-05-09T07:14:24.977Z,80.11
2024-05-09T07:17:32.133Z,80.04
2024-05-09T07:20:35.247Z,79.42
2024-05-09T07:23:39.877Z,79.76
2024-05-09T07:26:44.522Z,79.35
2024-05-09T07:29:46.365Z,78.96
2024-05-09T07:32:53.595Z,78.15
2024-05-09T07:35:56.409Z,78.22
2024-05-09T07:39:00.793Z,78.11
2024-05-09T07:42:05.168Z,78.16
2024-05-09T07:45:24.264Z,78.08
2024-05-09T07:50:34.340Z,77.82
2024-05-09T07:53:21.828Z,77.09
2024-05-09T07:55:20.713Z,76.58
2024-05-09T07:58:27.072Z,76.06
2024-05-09T08:01:31.770Z,75.09
2024-05-09T08:04:36.437Z,74.12
2024-05-09T08:07:40.863Z,73.55
2024-05-09T08:10:42.658Z,72.91
2024-05-09T08:13:47.044Z,72.86
2024-05-09T08:16:48.799Z,71.76
2024-05-09T08:19:56.154Z,71.25
2024-05-09T08:23:00.522Z,70.10
2024-05-09T08:26:02.291Z,68.90
2024-05-09T08:29:06.666Z,67.96
2024-05-09T08:32:12.365Z,67.66
2024-05-09T08:35:19.342Z,66.12
2024-05-09T08:38:21.132Z,65.56
2024-05-09T08:41:25.486Z,64.66
2024-05-09T08:44:27.257Z,64.46
2024-05-09T08:47:31.836Z,64.88
2024-05-09T08:50:39.100Z,64.31
2024-05-09T08:53:44.402Z,64.98
2024-05-09T08:56:48.863Z,65.12
2024-05-09T08:59:50.896Z,65.50
2024-05-09T09:02:55.352Z,65.39
2024-05-09T09:06:04.659Z,65.10
2024-05-09T09:09:09.031Z,64.60
2024-05-09T09:12:11.716Z,64.00
2024-05-09T09:15:16.083Z,64.06
2024-05-09T09:18:18.388Z,63.64
2024-05-09T09:21:25.553Z,63.69
2024-05-09T09:24:27.335Z,62.92
2024-05-09T09:27:31.741Z,62.62
2024-05-09T09:30:37.966Z,62.75
2024-05-09T09:33:44.763Z,62.49
2024-05-09T09:36:49.342Z,61.74
2024-05-09T09:39:53.780Z,61.81
2024-05-09T09:43:00.058Z,61.86
2024-05-09T09:46:02.067Z,61.29
2024-05-09T09:49:06.589Z,60.99
2024-05-09T09:52:11.363Z,60.30
2024-05-09T09:55:15.971Z,60.83
2024-05-09T09:58:18.060Z,61.20
2024-05-09T10:01:22.683Z,60.49
2024-05-09T10:04:27.241Z,59.63
2024-05-09T10:07:34.244Z,59.67
2024-05-09T10:10:36.182Z,59.67
2024-05-09T10:13:43.895Z,59.92
2024-05-09T10:16:45.629Z,60.93
2024-05-09T10:19:50.114Z,61.42
2024-05-09T10:22:57.164Z,61.51
2024-05-09T10:25:59.520Z,61.85
2024-05-09T10:29:05.084Z,61.56
2024-05-09T10:32:07.136Z,61.30
2024-05-09T10:35:12.062Z,60.82
2024-05-09T10:38:19.073Z,61.07
2024-05-09T10:41:21.549Z,60.99
2024-05-09T10:44:25.904Z,61.06
2024-05-09T10:47:29.350Z,60.74
2024-05-09T10:50:34.621Z,60.68
2024-05-09T10:53:45.356Z,60.47
2024-05-09T10:56:49.714Z,59.96
2024-05-09T10:59:51.481Z,59.93
2024-05-09T11:02:55.883Z,59.92
2024-05-09T11:06:10.013Z,59.68
2024-05-09T11:09:11.822Z,59.75
2024-05-09T11:12:16.176Z,59.67
2024-05-09T11:15:18.066Z,59.70
2024-05-09T11:18:25.443Z,59.55
2024-05-09T11:21:30.904Z,59.29
2024-05-09T11:24:35.517Z,58.69
2024-05-09T11:27:41.007Z,58.67
2024-05-09T11:30:42.800Z,58.33
2024-05-09T11:33:47.920Z,58.05
2024-05-09T11:36:52.397Z,57.56
2024-05-09T11:39:56.840Z,57.32
2024-05-09T11:43:01.252Z,57.21
2024-05-09T11:46:05.832Z,57.35
2024-05-09T11:49:11.618Z,56.41
2024-05-09T11:52:16.211Z,56.36
2024-05-09T11:55:26.824Z,56.16
2024-05-09T11:58:34.194Z,56.08
2024-05-09T12:01:38.633Z,55.79
2024-05-09T12:04:43.240Z,55.34
2024-05-09T12:07:47.962Z,55.10
2024-05-09T12:10:52.442Z,54.66
2024-05-09T12:13:54.324Z,54.75
2024-05-09T12:16:59.162Z,54.76
2024-05-09T12:20:00.996Z,54.79
2024-05-09T12:23:09.358Z,53.83
2024-05-09T12:26:15.738Z,54.71
2024-05-09T12:29:17.679Z,54.70
2024-05-09T12:32:22.100Z,54.35
2024-05-09T12:35:25.626Z,54.85
2024-05-09T12:38:32.623Z,55.22
2024-05-09T12:41:34.175Z,55.28
2024-05-09T12:44:38.527Z,55.57
2024-05-09T12:47:40.330Z,55.16
2024-05-09T12:50:44.973Z,55.57
2024-05-09T12:53:52.002Z,55.12
2024-05-09T12:56:56.146Z,55.04
2024-05-09T12:59:57.891Z,55.72
2024-05-09T13:03:02.399Z,54.97
2024-05-09T13:06:04.344Z,55.25
2024-05-09T13:09:11.800Z,55.58
2024-05-09T13:12:16.179Z,55.93
2024-05-09T13:15:18.074Z,55.24
2024-05-09T13:18:22.483Z,54.97
2024-05-09T13:21:24.282Z,54.56
2024-05-09T13:24:31.284Z,54.09
2024-05-09T13:27:35.740Z,53.55
2024-05-09T13:30:40.803Z,54.03
2024-05-09T13:33:46.720Z,53.62
2024-05-09T13:36:51.184Z,53.73
2024-05-09T13:39:58.204Z,52.21
2024-05-09T13:43:00.006Z,52.12
2024-05-09T13:46:04.442Z,51.48
2024-05-09T13:49:11.748Z,51.35
2024-05-09T13:52:17.078Z,50.30
2024-05-09T13:55:21.621Z,50.31
2024-05-09T13:58:26.104Z,50.29
2024-05-09T14:01:27.968Z,50.00
2024-05-09T14:04:32.528Z,49.46
2024-05-09T14:07:34.369Z,49.88
2024-05-09T14:10:44.488Z,49.28
2024-05-09T14:13:46.750Z,49.00
2024-05-09T14:16:51.137Z,47.87
2024-05-09T14:19:52.936Z,47.99
2024-05-09T14:22:57.332Z,48.63
2024-05-09T14:26:01.712Z,46.79
2024-05-09T14:29:06.067Z,46.67
2024-05-09T14:32:07.853Z,46.28
2024-05-09T14:35:12.373Z,46.09
2024-05-09T14:38:16.822Z,46.59
2024-05-09T14:41:23.774Z,45.87
2024-05-09T14:44:25.318Z,46.44
2024-05-09T14:47:29.813Z,46.72
2024-05-09T14:50:37.001Z,46.67
2024-05-09T14:53:43.885Z,46.45
2024-05-09T14:56:48.244Z,46.55
2024-05-09T14:59:52.592Z,45.86
2024-05-09T15:02:54.754Z,46.15
2024-05-09T15:05:59.180Z,46.61
2024-05-09T15:09:01.829Z,46.63
2024-05-09T15:12:09.688Z,47.28
2024-05-09T15:15:14.067Z,46.41
2024-05-09T15:18:15.997Z,47.15
2024-05-09T15:21:20.429Z,47.48
2024-05-09T15:24:22.385Z,47.71
2024-05-09T15:27:29.410Z,47.31
2024-05-09T15:30:33.493Z,46.66
2024-05-09T15:33:39.639Z,46.83
2024-05-09T15:36:44.105Z,47.26
2024-05-09T15:39:45.911Z,46.62
2024-05-09T15:42:53.139Z,45.93
2024-05-09T15:45:57.581Z,45.50
2024-05-09T15:52:03.728Z,45.91
2024-05-09T15:55:07.051Z,46.03
2024-05-09T15:58:14.286Z,45.80
2024-05-09T16:01:16.121Z,45.33
2024-05-09T16:04:20.658Z,45.51
2024-05-09T16:07:22.600Z,45.33
2024-05-09T16:10:32.392Z,45.74
2024-05-09T16:13:40.995Z,45.46
2024-05-09T16:16:42.718Z,45.69
2024-05-09T16:19:47.122Z,45.58
2024-05-09T16:22:48.942Z,45.27
2024-05-09T16:25:53.322Z,44.87
2024-05-09T16:28:57.708Z,44.85
2024-05-09T16:32:02.096Z,44.13
2024-05-09T16:35:04.483Z,43.97
2024-05-09T16:38:08.957Z,43.64
2024-05-09T16:41:10.759Z,43.71
2024-05-09T16:44:17.832Z,43.37
2024-05-09T16:47:19.647Z,43.88
2024-05-09T16:50:29.438Z,44.30
2024-05-09T16:53:35.775Z,44.57
2024-05-09T16:56:40.128Z,45.36
2024-05-09T16:59:45.145Z,44.38
2024-05-09T17:02:50.260Z,44.54
2024-05-09T17:05:52.178Z,45.21
2024-05-09T17:09:01.933Z,45.47
2024-05-09T17:12:09.839Z,45.31
2024-05-09T17:15:17.492Z,45.69
2024-05-09T17:18:21.965Z,45.71
2024-05-09T17:21:23.744Z,45.21
2024-05-09T17:24:28.090Z,45.29
2024-05-09T17:27:29.844Z,45.83
2024-05-09T17:30:38.775Z,45.91
2024-05-09T17:33:42.825Z,45.47
2024-05-09T17:36:47.289Z,45.82
2024-05-09T17:39:51.703Z,45.65
2024-05-09T17:42:53.496Z,45.70
2024-05-09T17:46:00.558Z,45.19
2024-05-09T17:49:02.572Z,44.73
2024-05-09T17:52:07.565Z,45.37
2024-05-09T17:55:09.529Z,45.12
2024-05-09T17:58:14.017Z,44.97
2024-05-09T18:01:18.599Z,45.41
2024-05-09T18:04:23.128Z,45.26
2024-05-09T18:07:25.283Z,45.61
2024-05-09T18:10:35.658Z,44.96
2024-05-09T18:13:42.917Z,45.77
2024-05-09T18:16:47.338Z,45.40
2024-05-09T18:19:51.723Z,45.37
2024-05-09T18:22:56.076Z,45.59
2024-05-09T18:26:01.169Z,46.08
2024-05-09T18:29:05.667Z,46.73
2024-05-09T18:32:10.195Z,47.11
2024-05-09T18:35:14.894Z,47.39
2024-05-09T18:38:25.255Z,47.65
2024-05-09T18:41:29.881Z,48.04
2024-05-09T18:44:32.094Z,48.42
2024-05-09T18:47:39.122Z,48.98
2024-05-09T18:50:41.637Z,48.96
2024-05-09T18:53:46.284Z,48.98
2024-05-09T18:56:48.084Z,48.94
2024-05-09T18:59:52.448Z,49.48
2024-05-09T19:02:59.871Z,49.78
2024-05-09T19:06:01.878Z,49.99
2024-05-09T19:09:07.294Z,50.06
2024-05-09T19:12:09.510Z,50.23
2024-05-09T19:15:13.870Z,50.44
2024-05-09T19:18:18.383Z,50.87
2024-05-09T19:21:22.809Z,50.75
2024-05-09T19:24:24.578Z,50.68
2024-05-09T19:27:28.934Z,51.11
2024-05-09T19:30:38.442Z,51.10
2024-05-09T19:33:48.585Z,51.69
2024-05-09T19:36:50.224Z,51.17
2024-05-09T19:39:54.732Z,51.88
2024-05-09T19:42:56.649Z,52.09
2024-05-09T19:46:01.068Z,51.65
2024-05-09T19:49:05.854Z,51.15
2024-05-09T19:52:10.460Z,50.96
2024-05-09T19:55:12.471Z,51.14
2024-05-09T19:58:17.022Z,51.13
2024-05-09T20:01:18.982Z,51.65
2024-05-09T20:04:26.194Z,51.87
2024-05-09T20:07:28.080Z,52.12
2024-05-09T20:10:34.994Z,52.25
2024-05-09T20:13:40.617Z,52.65
2024-05-09T20:16:43.993Z,53.15
2024-05-09T20:19:51.187Z,53.29
2024-05-09T20:22:53.120Z,53.16
2024-05-09T20:25:57.470Z,53.40
2024-05-09T20:29:01.981Z,53.69
2024-05-09T20:32:04.270Z,54.27
2024-05-09T20:35:11.357Z,54.33
2024-05-09T20:38:12.922Z,54.15
2024-05-09T20:41:17.283Z,54.38
2024-05-09T20:44:19.060Z,54.94
2024-05-09T20:47:23.466Z,55.51
2024-05-09T20:50:36.416Z,55.40
2024-05-09T20:53:44.500Z,55.45
2024-05-09T20:56:46.240Z,55.81
2024-05-09T20:59:50.579Z,56.10
2024-05-09T21:02:52.532Z,56.42
2024-05-09T21:05:59.514Z,57.21
2024-05-09T21:09:01.306Z,57.10
2024-05-09T21:12:05.781Z,57.09
2024-05-09T21:15:07.834Z,57.47
2024-05-09T21:18:12.244Z,57.71
2024-05-09T21:21:16.713Z,58.57
2024-05-09T21:24:21.086Z,58.92
2024-05-09T21:27:24.462Z,58.55
2024-05-09T21:30:38.441Z,58.88
2024-05-09T21:33:46.366Z,59.25
2024-05-09T21:36:50.846Z,58.81
2024-05-09T21:39:55.333Z,59.41
2024-05-09T21:42:57.239Z,59.95
2024-05-09T21:46:01.726Z,59.69
2024-05-09T21:49:06.357Z,60.29
2024-05-09T21:52:11.010Z,60.44
2024-05-09T21:55:16.047Z,60.47
2024-05-09T21:58:20.677Z,60.97
2024-05-09T22:01:25.304Z,60.89
2024-05-09T22:04:27.246Z,60.89
2024-05-09T22:07:34.257Z,61.15
2024-05-09T22:10:37.007Z,61.08
2024-05-09T22:13:41.767Z,61.11
2024-05-09T22:16:43.763Z,61.09
2024-05-09T22:19:48.304Z,60.87
2024-05-09T22:22:54.317Z,60.66
2024-05-09T22:25:58.685Z,61.07
2024-05-09T22:29:00.450Z,61.20
2024-05-09T22:32:04.810Z,60.83
2024-05-09T22:35:10.615Z,60.94
2024-05-09T22:38:14.983Z,61.24
2024-05-09T22:41:19.363Z,60.87
2024-05-09T22:44:21.299Z,60.58
2024-05-09T22:47:25.762Z,60.88
2024-05-09T22:50:32.775Z,61.13
2024-05-09T22:53:40.609Z,60.89
2024-05-09T22:56:42.982Z,61.15
2024-05-09T22:59:47.323Z,61.17
2024-05-09T23:02:49.119Z,61.28
2024-05-09T23:05:53.502Z,61.02
2024-05-09T23:08:57.871Z,61.16
2024-05-09T23:12:02.276Z,61.32
2024-05-09T23:15:04.666Z,61.24
2024-05-09T23:18:09.336Z,61.37
2024-05-09T23:21:11.326Z,61.48
2024-05-09T23:24:18.292Z,61.85
2024-05-09T23:27:22.654Z,61.39
2024-05-09T23:30:33.616Z,61.53
2024-05-09T23:33:48.033Z,61.54
2024-05-09T23:36:49.964Z,61.78
2024-05-09T23:39:57.051Z,61.77
2024-05-09T23:43:01.438Z,61.77
2024-05-09T23:46:03.406Z,61.79
2024-05-09T23:49:07.895Z,62.03
2024-05-09T23:52:09.805Z,61.93
2024-05-09T23:55:17.072Z,62.31
2024-05-09T23:58:21.525Z,62.63
